Etusivu
METAR-TAF:

METAR-TAF

Lentoasemat :

Fairfield County Airport

Lancaster, Ohio, Yhdysvallat

Leveyspiiri: 39-45-26N, Pituuspiiri: 082-39-48W, korkeus merenpinnasta: 264 m

Tämänhetkinen sää

Tämä raportti tehtiin 1 tunti ja 15 minuuttia sitten, kello 03.53 UTC
Tuuli 5 kn kaakosta
Lämpötila 7°C
Kosteus 53%
Ilmanpaine 1014 hPa
Näkyvyys: 16.1 km
Pilvistä 7500 ft:n korkeudessa

METAR: KLHQ 180353Z AUTO 14005KT 10SM OVC075 07/M02 A2995 RMK AO2 SLP145 T00721022

Aika: 00:08 (05:08 UTC)


TAF: puuttuu

Säähavainnot ja -ennusteet yli 4000 lentoasemalta (METAR- ja TAF-raportit).

Käytössä olevat sääasemat on merkitty karttaan keltaisilla ja punaisilla pisteillä.

Aseta hiiri pisteen päälle nähdäksesi sääaseman nimen.

Klikkaa sitten nähdäksesi säähavainnot ja -ennusteet.

Kartan vaihtaminen: klikkaa mustalla rastilla varustettuja vihreitä pisteitä, niin voit zoomata sisään; viivalla varustettua vihreää pistettä, niin voit zoomata ulos tai vihreitä nuolia, niin pääset viereisille kartoille.


METAR-TAF: